sensor_id;sensor_type;location;lat;lon;timestamp;P1;durP1;ratioP1;P2;durP2;ratioP2
68216;SDS011;55037;52.354;4.992;2022-08-04T00:02:42;5.30;;;2.17;;
68216;SDS011;55037;52.354;4.992;2022-08-04T00:07:22;8.80;;;2.53;;
68216;SDS011;55037;52.354;4.992;2022-08-04T00:10:10;6.72;;;2.40;;
68216;SDS011;55037;52.354;4.992;2022-08-04T00:12:42;6.60;;;2.30;;
68216;SDS011;55037;52.354;4.992;2022-08-04T00:15:17;8.10;;;2.67;;
68216;SDS011;55037;52.354;4.992;2022-08-04T00:17:50;11.10;;;2.60;;
68216;SDS011;55037;52.354;4.992;2022-08-04T00:20:31;5.93;;;2.53;;
68216;SDS011;55037;52.354;4.992;2022-08-04T00:23:00;6.88;;;2.65;;
68216;SDS011;55037;52.354;4.992;2022-08-04T00:25:28;7.97;;;2.65;;
68216;SDS011;55037;52.354;4.992;2022-08-04T00:27:56;6.28;;;2.33;;
68216;SDS011;55037;52.354;4.992;2022-08-04T00:30:25;6.22;;;2.53;;
68216;SDS011;55037;52.354;4.992;2022-08-04T00:32:53;7.85;;;2.45;;
68216;SDS011;55037;52.354;4.992;2022-08-04T00:35:23;7.32;;;2.63;;
68216;SDS011;55037;52.354;4.992;2022-08-04T00:37:51;8.38;;;2.58;;
68216;SDS011;55037;52.354;4.992;2022-08-04T00:40:22;6.88;;;2.80;;
68216;SDS011;55037;52.354;4.992;2022-08-04T00:49:31;6.53;;;2.47;;
68216;SDS011;55037;52.354;4.992;2022-08-04T01:01:00;8.52;;;2.30;;
68216;SDS011;55037;52.354;4.992;2022-08-04T01:03:39;5.53;;;2.50;;
68216;SDS011;55037;52.354;4.992;2022-08-04T01:06:42;6.88;;;2.40;;
68216;SDS011;55037;52.354;4.992;2022-08-04T01:09:26;6.55;;;2.40;;
68216;SDS011;55037;52.354;4.992;2022-08-04T01:16:04;7.43;;;2.60;;
68216;SDS011;55037;52.354;4.992;2022-08-04T01:26:42;8.25;;;2.60;;
68216;SDS011;55037;52.354;4.992;2022-08-04T01:29:46;7.50;;;2.80;;
68216;SDS011;55037;52.354;4.992;2022-08-04T01:32:19;7.15;;;2.65;;
68216;SDS011;55037;52.354;4.992;2022-08-04T01:35:04;8.05;;;2.50;;
68216;SDS011;55037;52.354;4.992;2022-08-04T01:37:43;9.35;;;2.70;;
68216;SDS011;55037;52.354;4.992;2022-08-04T01:40:44;7.37;;;2.80;;
68216;SDS011;55037;52.354;4.992;2022-08-04T01:43:13;7.88;;;2.60;;
68216;SDS011;55037;52.354;4.992;2022-08-04T01:45:41;7.50;;;2.70;;
68216;SDS011;55037;52.354;4.992;2022-08-04T01:48:15;7.95;;;2.75;;
68216;SDS011;55037;52.354;4.992;2022-08-04T01:50:44;6.43;;;2.50;;
68216;SDS011;55037;52.354;4.992;2022-08-04T01:53:19;6.97;;;2.78;;
68216;SDS011;55037;52.354;4.992;2022-08-04T01:55:47;8.25;;;2.70;;
68216;SDS011;55037;52.354;4.992;2022-08-04T01:58:22;8.95;;;2.40;;
68216;SDS011;55037;52.354;4.992;2022-08-04T02:00:58;8.05;;;2.50;;
68216;SDS011;55037;52.354;4.992;2022-08-04T02:03:35;8.18;;;2.40;;
68216;SDS011;55037;52.354;4.992;2022-08-04T02:14:59;9.13;;;2.60;;
68216;SDS011;55037;52.354;4.992;2022-08-04T02:17:38;7.38;;;2.53;;
68216;SDS011;55037;52.354;4.992;2022-08-04T02:20:24;8.77;;;2.55;;
68216;SDS011;55037;52.354;4.992;2022-08-04T02:22:59;6.73;;;2.57;;
68216;SDS011;55037;52.354;4.992;2022-08-04T02:25:33;9.20;;;2.53;;
68216;SDS011;55037;52.354;4.992;2022-08-04T02:30:56;6.93;;;2.78;;
68216;SDS011;55037;52.354;4.992;2022-08-04T02:33:51;8.23;;;2.75;;
68216;SDS011;55037;52.354;4.992;2022-08-04T02:36:30;7.90;;;2.60;;
68216;SDS011;55037;52.354;4.992;2022-08-04T02:39:03;8.70;;;2.90;;
68216;SDS011;55037;52.354;4.992;2022-08-04T02:41:33;8.02;;;2.50;;
68216;SDS011;55037;52.354;4.992;2022-08-04T02:44:03;8.77;;;2.70;;
68216;SDS011;55037;52.354;4.992;2022-08-04T02:46:33;8.27;;;2.67;;
68216;SDS011;55037;52.354;4.992;2022-08-04T02:49:02;6.72;;;2.55;;
68216;SDS011;55037;52.354;4.992;2022-08-04T02:51:40;8.63;;;2.67;;
68216;SDS011;55037;52.354;4.992;2022-08-04T02:54:10;7.47;;;2.80;;
68216;SDS011;55037;52.354;4.992;2022-08-04T02:56:56;9.38;;;2.47;;
68216;SDS011;55037;52.354;4.992;2022-08-04T02:59:25;9.40;;;2.40;;
68216;SDS011;55037;52.354;4.992;2022-08-04T03:01:55;6.68;;;2.70;;
68216;SDS011;55037;52.354;4.992;2022-08-04T03:12:56;7.68;;;2.88;;
68216;SDS011;55037;52.354;4.992;2022-08-04T03:24:09;7.83;;;2.80;;
68216;SDS011;55037;52.354;4.992;2022-08-04T03:38:16;9.30;;;2.95;;
68216;SDS011;55037;52.354;4.992;2022-08-04T03:50:21;7.93;;;2.60;;
68216;SDS011;55037;52.354;4.992;2022-08-04T04:02:32;8.55;;;2.92;;
68216;SDS011;55037;52.354;4.992;2022-08-04T04:13:23;6.80;;;2.55;;
68216;SDS011;55037;52.354;4.992;2022-08-04T04:16:12;7.78;;;2.42;;
68216;SDS011;55037;52.354;4.992;2022-08-04T04:21:26;7.50;;;2.80;;
68216;SDS011;55037;52.354;4.992;2022-08-04T04:35:01;10.18;;;2.53;;
68216;SDS011;55037;52.354;4.992;2022-08-04T04:37:36;6.80;;;2.60;;
68216;SDS011;55037;52.354;4.992;2022-08-04T04:41:03;6.30;;;2.67;;
68216;SDS011;55037;52.354;4.992;2022-08-04T04:43:56;6.50;;;2.33;;
68216;SDS011;55037;52.354;4.992;2022-08-04T04:49:33;7.55;;;2.40;;
68216;SDS011;55037;52.354;4.992;2022-08-04T04:54:52;8.15;;;2.50;;
68216;SDS011;55037;52.354;4.992;2022-08-04T04:57:28;7.30;;;2.50;;
68216;SDS011;55037;52.354;4.992;2022-08-04T05:00:20;6.25;;;2.42;;
68216;SDS011;55037;52.354;4.992;2022-08-04T05:03:04;4.90;;;2.22;;
68216;SDS011;55037;52.354;4.992;2022-08-04T05:06:07;6.72;;;2.40;;
68216;SDS011;55037;52.354;4.992;2022-08-04T05:14:29;6.60;;;2.60;;
68216;SDS011;55037;52.354;4.992;2022-08-04T05:19:49;6.35;;;2.70;;
68216;SDS011;55037;52.354;4.992;2022-08-04T05:22:25;6.70;;;2.60;;
68216;SDS011;55037;52.354;4.992;2022-08-04T05:25:04;7.32;;;2.40;;
68216;SDS011;55037;52.354;4.992;2022-08-04T05:27:49;7.93;;;2.38;;
68216;SDS011;55037;52.354;4.992;2022-08-04T05:30:23;6.20;;;2.33;;
68216;SDS011;55037;52.354;4.992;2022-08-04T05:32:54;5.63;;;2.20;;
68216;SDS011;55037;52.354;4.992;2022-08-04T05:35:32;6.53;;;2.30;;
68216;SDS011;55037;52.354;4.992;2022-08-04T05:38:25;6.07;;;2.50;;
68216;SDS011;55037;52.354;4.992;2022-08-04T05:40:55;6.27;;;2.00;;
68216;SDS011;55037;52.354;4.992;2022-08-04T05:43:23;8.65;;;2.22;;
68216;SDS011;55037;52.354;4.992;2022-08-04T05:45:51;7.35;;;2.20;;
68216;SDS011;55037;52.354;4.992;2022-08-04T05:48:20;11.98;;;2.10;;
68216;SDS011;55037;52.354;4.992;2022-08-04T05:50:47;6.47;;;2.30;;
68216;SDS011;55037;52.354;4.992;2022-08-04T05:53:15;8.02;;;2.38;;
68216;SDS011;55037;52.354;4.992;2022-08-04T05:55:45;8.23;;;2.33;;
68216;SDS011;55037;52.354;4.992;2022-08-04T05:58:25;8.27;;;2.40;;
68216;SDS011;55037;52.354;4.992;2022-08-04T06:00:59;9.57;;;2.50;;
68216;SDS011;55037;52.354;4.992;2022-08-04T06:03:30;8.32;;;2.42;;
68216;SDS011;55037;52.354;4.992;2022-08-04T06:05:59;6.57;;;2.40;;
68216;SDS011;55037;52.354;4.992;2022-08-04T06:08:28;10.05;;;2.35;;
68216;SDS011;55037;52.354;4.992;2022-08-04T06:10:58;8.15;;;2.50;;
68216;SDS011;55037;52.354;4.992;2022-08-04T06:13:32;9.65;;;2.65;;
68216;SDS011;55037;52.354;4.992;2022-08-04T06:16:20;10.30;;;2.70;;
68216;SDS011;55037;52.354;4.992;2022-08-04T06:18:58;9.10;;;2.80;;
68216;SDS011;55037;52.354;4.992;2022-08-04T06:21:50;8.30;;;2.40;;
68216;SDS011;55037;52.354;4.992;2022-08-04T06:24:21;8.50;;;2.78;;
68216;SDS011;55037;52.354;4.992;2022-08-04T06:26:54;10.63;;;2.87;;
68216;SDS011;55037;52.354;4.992;2022-08-04T06:29:23;8.68;;;2.70;;
68216;SDS011;55037;52.354;4.992;2022-08-04T06:32:17;10.43;;;2.92;;
68216;SDS011;55037;52.354;4.992;2022-08-04T06:35:07;11.00;;;3.10;;
68216;SDS011;55037;52.354;4.992;2022-08-04T06:37:35;9.68;;;2.97;;
68216;SDS011;55037;52.354;4.992;2022-08-04T06:40:10;8.35;;;3.25;;
68216;SDS011;55037;52.354;4.992;2022-08-04T06:42:59;9.43;;;2.80;;
68216;SDS011;55037;52.354;4.992;2022-08-04T06:45:28;10.93;;;3.10;;
68216;SDS011;55037;52.354;4.992;2022-08-04T06:47:56;8.30;;;2.60;;
68216;SDS011;55037;52.354;4.992;2022-08-04T06:50:25;9.07;;;2.90;;
68216;SDS011;55037;52.354;4.992;2022-08-04T06:53:13;9.05;;;2.65;;
68216;SDS011;55037;52.354;4.992;2022-08-04T06:55:41;12.70;;;2.67;;
68216;SDS011;55037;52.354;4.992;2022-08-04T06:58:10;8.47;;;3.30;;
68216;SDS011;55037;52.354;4.992;2022-08-04T07:00:39;8.83;;;2.90;;
68216;SDS011;55037;52.354;4.992;2022-08-04T07:03:08;10.80;;;2.78;;
68216;SDS011;55037;52.354;4.992;2022-08-04T07:05:37;7.95;;;3.00;;
68216;SDS011;55037;52.354;4.992;2022-08-04T07:08:05;9.07;;;2.72;;
68216;SDS011;55037;52.354;4.992;2022-08-04T07:10:35;9.20;;;2.67;;
68216;SDS011;55037;52.354;4.992;2022-08-04T07:13:03;10.73;;;2.63;;
68216;SDS011;55037;52.354;4.992;2022-08-04T07:15:32;9.75;;;2.80;;
68216;SDS011;55037;52.354;4.992;2022-08-04T07:18:01;10.10;;;2.60;;
68216;SDS011;55037;52.354;4.992;2022-08-04T07:20:31;12.45;;;2.60;;
68216;SDS011;55037;52.354;4.992;2022-08-04T07:23:05;8.57;;;2.33;;
68216;SDS011;55037;52.354;4.992;2022-08-04T07:25:34;12.73;;;3.00;;
68216;SDS011;55037;52.354;4.992;2022-08-04T07:28:22;9.77;;;2.70;;
68216;SDS011;55037;52.354;4.992;2022-08-04T07:30:51;9.27;;;2.53;;
68216;SDS011;55037;52.354;4.992;2022-08-04T07:33:20;8.82;;;2.70;;
68216;SDS011;55037;52.354;4.992;2022-08-04T07:35:52;11.05;;;2.50;;
68216;SDS011;55037;52.354;4.992;2022-08-04T07:38:40;7.88;;;2.38;;
68216;SDS011;55037;52.354;4.992;2022-08-04T07:41:21;6.77;;;2.10;;
68216;SDS011;55037;52.354;4.992;2022-08-04T07:44:06;8.50;;;2.50;;
68216;SDS011;55037;52.354;4.992;2022-08-04T07:46:35;6.95;;;2.20;;
68216;SDS011;55037;52.354;4.992;2022-08-04T07:49:05;8.52;;;2.25;;
68216;SDS011;55037;52.354;4.992;2022-08-04T07:51:35;4.60;;;1.73;;
68216;SDS011;55037;52.354;4.992;2022-08-04T07:54:03;4.13;;;1.67;;
68216;SDS011;55037;52.354;4.992;2022-08-04T07:56:36;7.07;;;2.03;;
68216;SDS011;55037;52.354;4.992;2022-08-04T07:59:05;6.50;;;1.80;;
68216;SDS011;55037;52.354;4.992;2022-08-04T08:01:35;5.82;;;1.90;;
68216;SDS011;55037;52.354;4.992;2022-08-04T08:04:04;7.47;;;1.70;;
68216;SDS011;55037;52.354;4.992;2022-08-04T08:06:35;5.70;;;2.17;;
68216;SDS011;55037;52.354;4.992;2022-08-04T08:09:12;6.05;;;1.83;;
68216;SDS011;55037;52.354;4.992;2022-08-04T08:11:41;6.45;;;2.00;;
68216;SDS011;55037;52.354;4.992;2022-08-04T08:14:30;6.37;;;1.77;;
68216;SDS011;55037;52.354;4.992;2022-08-04T08:16:59;5.30;;;1.83;;
68216;SDS011;55037;52.354;4.992;2022-08-04T08:19:30;6.60;;;1.92;;
68216;SDS011;55037;52.354;4.992;2022-08-04T08:22:00;6.50;;;1.67;;
68216;SDS011;55037;52.354;4.992;2022-08-04T08:24:28;4.93;;;1.98;;
68216;SDS011;55037;52.354;4.992;2022-08-04T08:27:00;5.37;;;1.80;;
68216;SDS011;55037;52.354;4.992;2022-08-04T08:29:30;5.32;;;1.88;;
68216;SDS011;55037;52.354;4.992;2022-08-04T08:32:01;6.05;;;1.80;;
68216;SDS011;55037;52.354;4.992;2022-08-04T08:34:34;5.22;;;2.05;;
68216;SDS011;55037;52.354;4.992;2022-08-04T08:37:06;7.43;;;1.98;;
68216;SDS011;55037;52.354;4.992;2022-08-04T08:42:22;3.65;;;1.80;;
68216;SDS011;55037;52.354;4.992;2022-08-04T08:53:38;5.95;;;2.10;;
68216;SDS011;55037;52.354;4.992;2022-08-04T08:56:25;5.50;;;1.90;;
68216;SDS011;55037;52.354;4.992;2022-08-04T08:59:25;4.60;;;1.90;;
68216;SDS011;55037;52.354;4.992;2022-08-04T09:11:41;5.10;;;2.13;;
68216;SDS011;55037;52.354;4.992;2022-08-04T09:19:25;6.05;;;2.40;;
68216;SDS011;55037;52.354;4.992;2022-08-04T09:24:49;6.18;;;2.33;;
68216;SDS011;55037;52.354;4.992;2022-08-04T09:27:34;6.37;;;2.50;;
68216;SDS011;55037;52.354;4.992;2022-08-04T09:30:18;4.60;;;2.72;;
68216;SDS011;55037;52.354;4.992;2022-08-04T09:39:02;7.70;;;2.42;;
68216;SDS011;55037;52.354;4.992;2022-08-04T09:58:23;4.18;;;2.10;;
68216;SDS011;55037;52.354;4.992;2022-08-04T10:01:01;5.78;;;2.00;;
68216;SDS011;55037;52.354;4.992;2022-08-04T10:03:34;4.72;;;1.80;;
68216;SDS011;55037;52.354;4.992;2022-08-04T10:06:14;6.20;;;1.80;;
68216;SDS011;55037;52.354;4.992;2022-08-04T10:17:19;5.38;;;1.80;;
68216;SDS011;55037;52.354;4.992;2022-08-04T10:19:57;6.05;;;1.90;;
68216;SDS011;55037;52.354;4.992;2022-08-04T10:26:01;5.50;;;1.90;;
68216;SDS011;55037;52.354;4.992;2022-08-04T10:28:45;3.65;;;1.85;;
68216;SDS011;55037;52.354;4.992;2022-08-04T10:31:19;4.43;;;1.90;;
68216;SDS011;55037;52.354;4.992;2022-08-04T10:34:05;6.15;;;1.90;;
68216;SDS011;55037;52.354;4.992;2022-08-04T10:36:44;5.07;;;2.10;;
68216;SDS011;55037;52.354;4.992;2022-08-04T10:39:27;5.97;;;1.88;;
68216;SDS011;55037;52.354;4.992;2022-08-04T10:45:07;5.95;;;1.70;;
68216;SDS011;55037;52.354;4.992;2022-08-04T10:47:50;6.47;;;2.00;;
68216;SDS011;55037;52.354;4.992;2022-08-04T10:50:28;6.55;;;2.00;;
68216;SDS011;55037;52.354;4.992;2022-08-04T10:53:10;3.80;;;1.93;;
68216;SDS011;55037;52.354;4.992;2022-08-04T10:55:41;5.43;;;1.93;;
68216;SDS011;55037;52.354;4.992;2022-08-04T10:58:38;6.63;;;2.13;;
68216;SDS011;55037;52.354;4.992;2022-08-04T11:01:16;5.25;;;1.80;;
68216;SDS011;55037;52.354;4.992;2022-08-04T11:07:13;6.83;;;2.07;;
68216;SDS011;55037;52.354;4.992;2022-08-04T11:09:42;3.93;;;1.83;;
68216;SDS011;55037;52.354;4.992;2022-08-04T11:12:18;6.30;;;1.90;;
68216;SDS011;55037;52.354;4.992;2022-08-04T11:14:55;5.13;;;2.20;;
68216;SDS011;55037;52.354;4.992;2022-08-04T11:17:31;5.05;;;2.40;;
68216;SDS011;55037;52.354;4.992;2022-08-04T11:23:02;6.00;;;3.00;;
68216;SDS011;55037;52.354;4.992;2022-08-04T11:25:43;5.82;;;2.65;;
68216;SDS011;55037;52.354;4.992;2022-08-04T11:28:37;6.75;;;3.08;;
68216;SDS011;55037;52.354;4.992;2022-08-04T11:31:11;7.72;;;3.45;;
68216;SDS011;55037;52.354;4.992;2022-08-04T11:33:55;7.53;;;3.40;;
68216;SDS011;55037;52.354;4.992;2022-08-04T11:44:39;7.32;;;4.10;;
68216;SDS011;55037;52.354;4.992;2022-08-04T11:50:09;6.67;;;3.57;;
68216;SDS011;55037;52.354;4.992;2022-08-04T11:52:41;5.47;;;3.00;;
68216;SDS011;55037;52.354;4.992;2022-08-04T11:55:10;4.35;;;3.03;;
68216;SDS011;55037;52.354;4.992;2022-08-04T11:57:40;4.80;;;2.80;;
68216;SDS011;55037;52.354;4.992;2022-08-04T12:00:11;6.03;;;3.47;;
68216;SDS011;55037;52.354;4.992;2022-08-04T12:05:31;5.00;;;3.47;;
68216;SDS011;55037;52.354;4.992;2022-08-04T12:08:20;4.95;;;2.92;;
68216;SDS011;55037;52.354;4.992;2022-08-04T12:16:28;6.20;;;3.60;;
68216;SDS011;55037;52.354;4.992;2022-08-04T12:19:19;5.70;;;3.03;;
68216;SDS011;55037;52.354;4.992;2022-08-04T12:22:21;6.55;;;3.28;;
68216;SDS011;55037;52.354;4.992;2022-08-04T12:24:58;5.80;;;3.10;;
68216;SDS011;55037;52.354;4.992;2022-08-04T12:27:34;5.80;;;3.43;;
68216;SDS011;55037;52.354;4.992;2022-08-04T12:30:07;7.05;;;3.03;;
68216;SDS011;55037;52.354;4.992;2022-08-04T12:33:01;8.15;;;3.30;;
68216;SDS011;55037;52.354;4.992;2022-08-04T12:35:43;8.25;;;3.55;;
68216;SDS011;55037;52.354;4.992;2022-08-04T12:38:38;5.20;;;3.30;;
68216;SDS011;55037;52.354;4.992;2022-08-04T12:41:15;5.90;;;3.80;;
68216;SDS011;55037;52.354;4.992;2022-08-04T12:43:48;6.70;;;3.35;;
68216;SDS011;55037;52.354;4.992;2022-08-04T12:46:23;5.65;;;3.15;;
68216;SDS011;55037;52.354;4.992;2022-08-04T12:48:52;6.80;;;3.50;;
68216;SDS011;55037;52.354;4.992;2022-08-04T12:51:27;5.97;;;3.20;;
68216;SDS011;55037;52.354;4.992;2022-08-04T12:54:19;6.50;;;3.63;;
68216;SDS011;55037;52.354;4.992;2022-08-04T12:56:58;6.03;;;3.20;;
68216;SDS011;55037;52.354;4.992;2022-08-04T12:59:27;5.07;;;3.30;;
68216;SDS011;55037;52.354;4.992;2022-08-04T13:01:54;5.57;;;3.58;;
68216;SDS011;55037;52.354;4.992;2022-08-04T13:04:37;4.88;;;3.00;;
68216;SDS011;55037;52.354;4.992;2022-08-04T13:07:19;4.78;;;3.40;;
68216;SDS011;55037;52.354;4.992;2022-08-04T13:09:48;4.40;;;3.03;;
68216;SDS011;55037;52.354;4.992;2022-08-04T13:12:18;5.70;;;3.33;;
68216;SDS011;55037;52.354;4.992;2022-08-04T13:15:04;6.28;;;3.00;;
68216;SDS011;55037;52.354;4.992;2022-08-04T13:18:03;6.45;;;3.70;;
68216;SDS011;55037;52.354;4.992;2022-08-04T13:20:41;5.40;;;3.05;;
68216;SDS011;55037;52.354;4.992;2022-08-04T13:23:11;7.13;;;3.20;;
68216;SDS011;55037;52.354;4.992;2022-08-04T13:25:48;5.97;;;2.80;;
68216;SDS011;55037;52.354;4.992;2022-08-04T13:28:39;4.93;;;3.00;;
68216;SDS011;55037;52.354;4.992;2022-08-04T13:31:10;4.90;;;2.70;;
68216;SDS011;55037;52.354;4.992;2022-08-04T13:33:43;5.70;;;2.75;;
68216;SDS011;55037;52.354;4.992;2022-08-04T13:36:12;4.32;;;2.95;;
68216;SDS011;55037;52.354;4.992;2022-08-04T13:38:48;5.63;;;2.67;;
68216;SDS011;55037;52.354;4.992;2022-08-04T13:41:19;5.00;;;3.05;;
68216;SDS011;55037;52.354;4.992;2022-08-04T13:43:49;7.65;;;3.08;;
68216;SDS011;55037;52.354;4.992;2022-08-04T13:46:49;5.80;;;2.83;;
68216;SDS011;55037;52.354;4.992;2022-08-04T13:49:18;5.10;;;3.20;;
68216;SDS011;55037;52.354;4.992;2022-08-04T13:52:07;4.63;;;3.25;;
68216;SDS011;55037;52.354;4.992;2022-08-04T13:54:40;6.30;;;3.30;;
68216;SDS011;55037;52.354;4.992;2022-08-04T13:57:11;4.43;;;2.55;;
68216;SDS011;55037;52.354;4.992;2022-08-04T13:59:46;7.57;;;2.80;;
68216;SDS011;55037;52.354;4.992;2022-08-04T14:05:25;5.30;;;2.50;;
68216;SDS011;55037;52.354;4.992;2022-08-04T14:08:08;6.40;;;2.90;;
68216;SDS011;55037;52.354;4.992;2022-08-04T14:10:40;6.43;;;2.67;;
68216;SDS011;55037;52.354;4.992;2022-08-04T14:13:08;7.77;;;2.90;;
68216;SDS011;55037;52.354;4.992;2022-08-04T14:15:39;4.25;;;2.22;;
68216;SDS011;55037;52.354;4.992;2022-08-04T14:18:29;4.68;;;2.50;;
68216;SDS011;55037;52.354;4.992;2022-08-04T14:21:10;5.82;;;2.55;;
68216;SDS011;55037;52.354;4.992;2022-08-04T14:26:31;6.80;;;2.92;;
68216;SDS011;55037;52.354;4.992;2022-08-04T14:29:20;3.88;;;2.40;;
68216;SDS011;55037;52.354;4.992;2022-08-04T14:31:58;5.40;;;2.60;;
68216;SDS011;55037;52.354;4.992;2022-08-04T14:34:28;5.30;;;2.40;;
68216;SDS011;55037;52.354;4.992;2022-08-04T14:36:57;3.80;;;2.22;;
68216;SDS011;55037;52.354;4.992;2022-08-04T14:39:45;6.23;;;2.70;;
68216;SDS011;55037;52.354;4.992;2022-08-04T14:42:39;4.53;;;2.40;;
68216;SDS011;55037;52.354;4.992;2022-08-04T14:45:07;4.43;;;2.30;;
68216;SDS011;55037;52.354;4.992;2022-08-04T14:47:45;5.40;;;2.50;;
68216;SDS011;55037;52.354;4.992;2022-08-04T14:50:18;4.00;;;2.30;;
68216;SDS011;55037;52.354;4.992;2022-08-04T14:52:46;5.50;;;2.40;;
68216;SDS011;55037;52.354;4.992;2022-08-04T14:55:23;4.75;;;2.38;;
68216;SDS011;55037;52.354;4.992;2022-08-04T14:57:51;6.20;;;2.35;;
68216;SDS011;55037;52.354;4.992;2022-08-04T15:00:38;5.40;;;2.45;;
68216;SDS011;55037;52.354;4.992;2022-08-04T15:03:07;4.83;;;2.40;;
68216;SDS011;55037;52.354;4.992;2022-08-04T15:05:36;4.93;;;2.60;;
68216;SDS011;55037;52.354;4.992;2022-08-04T15:08:25;5.80;;;2.20;;
68216;SDS011;55037;52.354;4.992;2022-08-04T15:10:58;4.93;;;2.45;;
68216;SDS011;55037;52.354;4.992;2022-08-04T15:13:28;6.05;;;2.40;;
68216;SDS011;55037;52.354;4.992;2022-08-04T15:15:57;5.30;;;2.10;;
68216;SDS011;55037;52.354;4.992;2022-08-04T15:18:34;4.97;;;2.20;;
68216;SDS011;55037;52.354;4.992;2022-08-04T15:21:03;6.00;;;2.55;;
68216;SDS011;55037;52.354;4.992;2022-08-04T15:23:31;5.07;;;2.40;;
68216;SDS011;55037;52.354;4.992;2022-08-04T15:26:10;4.55;;;2.25;;
68216;SDS011;55037;52.354;4.992;2022-08-04T15:28:43;5.72;;;2.28;;
68216;SDS011;55037;52.354;4.992;2022-08-04T15:31:15;5.70;;;2.35;;
68216;SDS011;55037;52.354;4.992;2022-08-04T15:34:05;4.43;;;2.35;;
68216;SDS011;55037;52.354;4.992;2022-08-04T15:42:35;4.47;;;1.90;;
68216;SDS011;55037;52.354;4.992;2022-08-04T15:45:20;5.03;;;2.40;;
68216;SDS011;55037;52.354;4.992;2022-08-04T15:50:58;5.30;;;1.88;;
68216;SDS011;55037;52.354;4.992;2022-08-04T15:53:24;5.57;;;1.80;;
68216;SDS011;55037;52.354;4.992;2022-08-04T15:58:52;5.40;;;2.10;;
68216;SDS011;55037;52.354;4.992;2022-08-04T16:01:20;5.47;;;2.08;;
68216;SDS011;55037;52.354;4.992;2022-08-04T16:03:49;5.93;;;1.92;;
68216;SDS011;55037;52.354;4.992;2022-08-04T16:08:56;4.53;;;2.00;;
68216;SDS011;55037;52.354;4.992;2022-08-04T16:19:05;5.03;;;1.90;;
68216;SDS011;55037;52.354;4.992;2022-08-04T16:21:49;5.72;;;1.70;;
68216;SDS011;55037;52.354;4.992;2022-08-04T16:27:05;3.60;;;1.30;;
68216;SDS011;55037;52.354;4.992;2022-08-04T16:29:43;3.60;;;1.45;;
68216;SDS011;55037;52.354;4.992;2022-08-04T16:32:19;4.38;;;1.60;;
68216;SDS011;55037;52.354;4.992;2022-08-04T16:34:56;4.40;;;1.70;;
68216;SDS011;55037;52.354;4.992;2022-08-04T16:45:39;5.05;;;1.40;;
68216;SDS011;55037;52.354;4.992;2022-08-04T16:48:07;4.93;;;1.40;;
68216;SDS011;55037;52.354;4.992;2022-08-04T16:50:43;4.77;;;1.40;;
68216;SDS011;55037;52.354;4.992;2022-08-04T16:53:15;3.03;;;1.40;;
68216;SDS011;55037;52.354;4.992;2022-08-04T16:56:07;3.72;;;1.50;;
68216;SDS011;55037;52.354;4.992;2022-08-04T16:58:36;5.50;;;1.80;;
68216;SDS011;55037;52.354;4.992;2022-08-04T17:01:20;3.80;;;1.30;;
68216;SDS011;55037;52.354;4.992;2022-08-04T17:04:00;4.35;;;1.55;;
68216;SDS011;55037;52.354;4.992;2022-08-04T17:06:34;4.65;;;1.65;;
68216;SDS011;55037;52.354;4.992;2022-08-04T17:09:04;5.25;;;1.50;;
68216;SDS011;55037;52.354;4.992;2022-08-04T17:11:44;4.13;;;1.30;;
68216;SDS011;55037;52.354;4.992;2022-08-04T17:14:12;4.20;;;1.30;;
68216;SDS011;55037;52.354;4.992;2022-08-04T17:16:46;4.28;;;1.45;;
68216;SDS011;55037;52.354;4.992;2022-08-04T17:19:13;4.63;;;1.45;;
68216;SDS011;55037;52.354;4.992;2022-08-04T17:21:51;5.97;;;1.60;;
68216;SDS011;55037;52.354;4.992;2022-08-04T17:24:30;4.83;;;1.60;;
68216;SDS011;55037;52.354;4.992;2022-08-04T17:26:57;5.55;;;1.70;;
68216;SDS011;55037;52.354;4.992;2022-08-04T17:29:28;5.75;;;1.73;;
68216;SDS011;55037;52.354;4.992;2022-08-04T17:32:14;6.68;;;3.00;;
68216;SDS011;55037;52.354;4.992;2022-08-04T17:34:45;4.50;;;1.90;;
68216;SDS011;55037;52.354;4.992;2022-08-04T17:37:16;5.22;;;2.30;;
68216;SDS011;55037;52.354;4.992;2022-08-04T17:40:13;7.38;;;2.50;;
68216;SDS011;55037;52.354;4.992;2022-08-04T17:42:48;6.07;;;2.97;;
68216;SDS011;55037;52.354;4.992;2022-08-04T17:45:17;5.38;;;1.75;;
68216;SDS011;55037;52.354;4.992;2022-08-04T17:48:12;5.78;;;1.90;;
68216;SDS011;55037;52.354;4.992;2022-08-04T17:50:50;5.53;;;2.30;;
68216;SDS011;55037;52.354;4.992;2022-08-04T17:53:18;4.77;;;1.80;;
68216;SDS011;55037;52.354;4.992;2022-08-04T17:56:25;6.40;;;2.22;;
68216;SDS011;55037;52.354;4.992;2022-08-04T18:02:04;5.85;;;2.00;;
68216;SDS011;55037;52.354;4.992;2022-08-04T18:07:35;6.00;;;2.15;;
68216;SDS011;55037;52.354;4.992;2022-08-04T18:10:36;5.30;;;1.90;;
68216;SDS011;55037;52.354;4.992;2022-08-04T18:13:23;6.00;;;1.67;;
68216;SDS011;55037;52.354;4.992;2022-08-04T18:16:04;4.30;;;1.77;;
68216;SDS011;55037;52.354;4.992;2022-08-04T18:19:06;4.63;;;1.92;;
68216;SDS011;55037;52.354;4.992;2022-08-04T18:21:39;3.60;;;1.50;;
68216;SDS011;55037;52.354;4.992;2022-08-04T18:24:26;6.45;;;1.70;;
68216;SDS011;55037;52.354;4.992;2022-08-04T18:27:15;7.05;;;1.90;;
68216;SDS011;55037;52.354;4.992;2022-08-04T18:29:44;5.68;;;1.80;;
68216;SDS011;55037;52.354;4.992;2022-08-04T18:32:31;5.47;;;1.90;;
68216;SDS011;55037;52.354;4.992;2022-08-04T18:35:00;5.55;;;1.83;;
68216;SDS011;55037;52.354;4.992;2022-08-04T18:37:33;7.03;;;2.38;;
68216;SDS011;55037;52.354;4.992;2022-08-04T18:40:22;7.45;;;2.10;;
68216;SDS011;55037;52.354;4.992;2022-08-04T18:42:57;7.25;;;1.90;;
68216;SDS011;55037;52.354;4.992;2022-08-04T18:45:26;4.80;;;1.58;;
68216;SDS011;55037;52.354;4.992;2022-08-04T18:48:03;6.28;;;1.70;;
68216;SDS011;55037;52.354;4.992;2022-08-04T18:50:40;7.00;;;1.80;;
68216;SDS011;55037;52.354;4.992;2022-08-04T18:53:31;6.57;;;2.00;;
68216;SDS011;55037;52.354;4.992;2022-08-04T18:56:02;8.60;;;2.10;;
68216;SDS011;55037;52.354;4.992;2022-08-04T18:58:53;6.78;;;1.90;;
68216;SDS011;55037;52.354;4.992;2022-08-04T19:01:20;6.03;;;1.92;;
68216;SDS011;55037;52.354;4.992;2022-08-04T19:04:10;6.07;;;2.20;;
68216;SDS011;55037;52.354;4.992;2022-08-04T19:07:00;6.50;;;1.77;;
68216;SDS011;55037;52.354;4.992;2022-08-04T19:09:48;7.10;;;2.15;;
68216;SDS011;55037;52.354;4.992;2022-08-04T19:12:18;8.27;;;2.22;;
68216;SDS011;55037;52.354;4.992;2022-08-04T19:14:56;9.20;;;2.40;;
68216;SDS011;55037;52.354;4.992;2022-08-04T19:17:37;8.73;;;2.10;;
68216;SDS011;55037;52.354;4.992;2022-08-04T19:20:26;9.55;;;2.20;;
68216;SDS011;55037;52.354;4.992;2022-08-04T19:22:55;6.80;;;2.20;;
68216;SDS011;55037;52.354;4.992;2022-08-04T19:25:43;7.50;;;2.38;;
68216;SDS011;55037;52.354;4.992;2022-08-04T19:28:30;8.32;;;2.30;;
68216;SDS011;55037;52.354;4.992;2022-08-04T19:31:05;7.00;;;2.40;;
68216;SDS011;55037;52.354;4.992;2022-08-04T19:33:33;7.10;;;2.33;;
68216;SDS011;55037;52.354;4.992;2022-08-04T19:36:22;8.55;;;2.30;;
68216;SDS011;55037;52.354;4.992;2022-08-04T19:38:55;9.05;;;2.47;;
68216;SDS011;55037;52.354;4.992;2022-08-04T19:41:43;6.97;;;2.45;;
68216;SDS011;55037;52.354;4.992;2022-08-04T19:44:30;6.35;;;2.13;;
68216;SDS011;55037;52.354;4.992;2022-08-04T19:46:57;7.63;;;2.33;;
68216;SDS011;55037;52.354;4.992;2022-08-04T19:49:28;7.07;;;2.13;;
68216;SDS011;55037;52.354;4.992;2022-08-04T19:52:15;8.18;;;2.40;;
68216;SDS011;55037;52.354;4.992;2022-08-04T19:55:02;6.97;;;2.47;;
68216;SDS011;55037;52.354;4.992;2022-08-04T19:57:37;7.45;;;2.50;;
68216;SDS011;55037;52.354;4.992;2022-08-04T20:00:15;7.88;;;2.50;;
68216;SDS011;55037;52.354;4.992;2022-08-04T20:02:59;6.30;;;2.72;;
68216;SDS011;55037;52.354;4.992;2022-08-04T20:05:28;8.93;;;2.40;;
68216;SDS011;55037;52.354;4.992;2022-08-04T20:08:16;11.63;;;2.42;;
68216;SDS011;55037;52.354;4.992;2022-08-04T20:10:43;9.05;;;2.35;;